Nearby METAR Reports

 

EGNR - Hawarden (aut), United Kingdom
Distance from station: ESE 33mi, 53km
Updated: 20/01/2018 18:50
NOT Current
Mostly cloudy
Mostly cloudy
 Wind from WNW
Wind: WNW 5 mph , 7 km/h
Temperature: 2°C
Wind Chill: 0°C
Dew Point: 1°C
Humidity: 93%
Barometer: 1007 hPa
Clouds: Mostly cloudy
Visibility: 6 miles , 10 km
Cloud details: Few Clouds 427 m
Mostly cloudy 1372 m
2018/01/20 18:50 EGNR 201850Z 30004KT 9999 FEW014 BKN045 02/01 Q1007
EGOV - Valley Raf, United Kingdom
Distance from station: W 33mi, 53km
Updated: 21/01/2018 03:50
Light rain, Mostly cloudy
Light rain, Mostly cloudy
 Wind from ESE
Wind: ESE 7 mph , 11 km/h
Temperature: 3°C
Wind Chill: 0°C
Dew Point: 2°C
Humidity: 93%
Barometer: 1011 hPa
Summary: Light rain
Clouds: Mostly cloudy
Visibility: 6 miles , 10 km
Cloud details: Few Clouds 671 m
Mostly cloudy 1036 m
2018/01/21 03:50 EGOV 210350Z AUTO 11006KT 9999 -RA FEW022/// BKN034/// 03/02 Q1011
 
EGGP - Liverpool Airpor, United Kingdom
Distance from station: E 37mi, 59km
Updated: 21/01/2018 04:20
Partly cloudy
Partly cloudy
 Wind from SSE
Wind: SSE 7 mph , 11 km/h
Temperature: 2°C
Wind Chill: -1°C
Dew Point: 2°C
Humidity: 100%
Barometer: 1012 hPa
Clouds: Partly cloudy
Visibility: 6 miles , 10 km
Cloud details: Partly cloudy 1158 m
2018/01/21 04:20 EGGP 210420Z 16006KT 110V180 9999 SCT038 02/02 Q1012
EGNH - Blackpool Airpor, United Kingdom
Distance from station: NE 44mi, 72km
Updated: 20/01/2018 20:50
NOT Current
Few Clouds
Few Clouds
 Wind from W
Wind: W 6 mph , 9 km/h
Temperature: 3°C
Wind Chill: 0°C
Dew Point: 2°C
Humidity: 93%
Barometer: 1008 hPa
Clouds: Few Clouds
Visibility: 6 miles , 10 km
Cloud details: Few Clouds 671 m
2018/01/20 20:50 EGNH 202050Z 28005KT 9999 FEW022 03/02 Q1008
 
EGNO - Wharton, United Kingdom
Distance from station: NE 47mi, 76km
Updated: 19/01/2018 16:50
NOT Current
Nearby showers, Mostly cloudy
Nearby showers, Mostly cloudy
 Wind from W
Wind: W 17 mph , 28 km/h
Temperature: 5°C
Wind Chill: 1°C
Dew Point: 1°C
Humidity: 76%
Barometer: 1004 hPa
Summary: Nearby Showers
Clouds: Mostly cloudy
Visibility: 6 miles , 10 km
Cloud details: Partly cloudy 732 m
Mostly cloudy 945 m
2018/01/19 16:50 EGNO 191650Z 27015KT 9999 VCSH SCT024 BKN031 05/01 Q1004
EGOS - Shawbury Raf, United Kingdom
Distance from station: SE 56mi, 89km
Updated: 21/01/2018 03:50
Mist, Overcast
Mist, Overcast
 Wind from S
Wind: S 5 mph , 7 km/h
Temperature: 1°C
Wind Chill: -2°C
Dew Point: 0°C
Humidity: 93%
Barometer: 1012 hPa
Summary: Mist
Clouds: Overcast
Visibility: 3 miles , 5 km
Cloud details: Overcast 2134 m
2018/01/21 03:50 EGOS 210350Z AUTO 17004KT 5000 BR OVC070/// 01/00 Q1012
 
EGCC - Manchester Intl, United Kingdom
Distance from station: E 61mi, 98km
Updated: 21/01/2018 04:20
Mist, Mostly cloudy
Mist, Mostly cloudy
 Wind from varies
Wind: varies 3 mph , 6 km/h
Temperature: 1°C
Dew Point: 1°C
Humidity: 100%
Barometer: 1013 hPa
Summary: Mist
Clouds: Mostly cloudy
Visibility: 2 miles , 4 km
Cloud details: Mostly cloudy 335 m
2018/01/21 04:20 EGCC 210420Z AUTO VRB03KT 3800 BR BKN011 01/01 Q1013
EGNS - Isle Of Man/Rona, United Kingdom
Distance from station: NW 66mi, 107km
Updated: 21/01/2018 03:50
Light rain, Overcast
Light rain, Overcast
 Wind from SE
Wind: SE 9 mph , 15 km/h
Temperature: 4°C
Wind Chill: 1°C
Dew Point: 2°C
Humidity: 87%
Barometer: 1010 hPa
Summary: Light rain
Clouds: Overcast
Visibility: 6 miles , 10 km
Cloud details: Partly cloudy 610 m
Mostly cloudy 762 m
Overcast 1219 m
2018/01/21 03:50 EGNS 210350Z 13008KT 9999 -RA SCT020 BKN025 OVC040 04/02 Q1010
 
EGNM - Leeds And Bradfo, United Kingdom
Distance from station: ENE 95mi, 153km
Updated: 21/01/2018 03:50
Clear
Clear
 Wind from W
Wind: W 7 mph , 11 km/h
Temperature: -1°C
Wind Chill: -5°C
Dew Point: -2°C
Humidity: 93%
Barometer: 1011 hPa
Summary: Clear
Visibility: greater than 7 miles , 10 km
2018/01/21 03:50 EGNM 210350Z 28006KT CAVOK M01/M02 Q1011
EGBB - Birmingham Airpo, United Kingdom
Distance from station: ESE 100mi, 161km
Updated: 21/01/2018 04:20
Mist, Mostly cloudy
Mist, Mostly cloudy
 Wind from S
Wind: S 3 mph , 6 km/h
Temperature: 1°C
Dew Point: 1°C
Humidity: 100%
Barometer: 1013 hPa
Summary: Mist
Clouds: Mostly cloudy
Visibility: 2 miles , 3 km
Cloud details: Mostly cloudy 122 m
Mostly cloudy 1250 m
2018/01/21 04:20 EGBB 210420Z 18003KT 3000 BR BKN004 BKN041 01/01 Q1013